SWA4006 KLAX-KSAN
Flight info
| Callsign | SWA4006 |
|---|---|
| Flight time | 0h 27m |
| Altitude | 13000 |
| Route | LAXX1 MZB |
| Aircraft | B738/M-SDE2E3FGHIRWXY/LB1 |
Departure
| Time | 2026-04-26 04:21 |
|---|---|
| Airport | Los Angeles International Airport (KLAX) |
Arrival
| Time | 2026-04-26 04:48 |
|---|---|
| Airport | San Diego International Airport (KSAN) |
| Time | Latitude | Longitude | Altitude | Speed | Heading |
|---|---|---|---|---|---|
| 2026-04-26 03:52 | 33.94107 | -118.40268 | 129 ft | 0 kts | 83° |
| 2026-04-26 04:09 | 33.94107 | -118.40269 | 129 ft | 1 kts | 82° |
| 2026-04-26 04:09 | 33.94107 | -118.40287 | 129 ft | 2 kts | 104° |
| 2026-04-26 04:10 | 33.94112 | -118.40304 | 129 ft | 2 kts | 121° |
| 2026-04-26 04:10 | 33.94122 | -118.40318 | 129 ft | 2 kts | 139° |
| 2026-04-26 04:10 | 33.94134 | -118.40327 | 130 ft | 2 kts | 156° |
| 2026-04-26 04:10 | 33.94147 | -118.40333 | 129 ft | 2 kts | 173° |
| 2026-04-26 04:11 | 33.94149 | -118.40333 | 129 ft | 0 kts | 175° |
| 2026-04-26 04:11 | 33.94147 | -118.40332 | 129 ft | 2 kts | 172° |
| 2026-04-26 04:12 | 33.94111 | -118.40327 | 130 ft | 6 kts | 173° |
| 2026-04-26 04:12 | 33.94081 | -118.40322 | 130 ft | 2 kts | 173° |
| 2026-04-26 04:12 | 33.94069 | -118.40321 | 130 ft | 4 kts | 173° |
| 2026-04-26 04:12 | 33.94038 | -118.40316 | 130 ft | 2 kts | 173° |
| 2026-04-26 04:13 | 33.94033 | -118.40315 | 130 ft | 0 kts | 173° |
| 2026-04-26 04:14 | 33.94031 | -118.40314 | 130 ft | 2 kts | 173° |
| 2026-04-26 04:14 | 33.93988 | -118.40308 | 129 ft | 9 kts | 173° |
| 2026-04-26 04:14 | 33.93895 | -118.40291 | 127 ft | 16 kts | 173° |
| 2026-04-26 04:15 | 33.93857 | -118.40212 | 125 ft | 14 kts | 83° |
| 2026-04-26 04:15 | 33.93871 | -118.40068 | 123 ft | 19 kts | 83° |
| 2026-04-26 04:15 | 33.93890 | -118.39893 | 121 ft | 22 kts | 83° |
| 2026-04-26 04:15 | 33.93909 | -118.39702 | 120 ft | 23 kts | 83° |
| 2026-04-26 04:16 | 33.93931 | -118.39492 | 114 ft | 26 kts | 83° |
| 2026-04-26 04:16 | 33.93953 | -118.39265 | 111 ft | 27 kts | 83° |
| 2026-04-26 04:16 | 33.93976 | -118.39043 | 109 ft | 26 kts | 83° |
| 2026-04-26 04:16 | 33.93998 | -118.38825 | 108 ft | 26 kts | 83° |
| 2026-04-26 04:17 | 33.94022 | -118.38604 | 107 ft | 25 kts | 83° |
| 2026-04-26 04:17 | 33.94041 | -118.38406 | 106 ft | 22 kts | 84° |
| 2026-04-26 04:17 | 33.94060 | -118.38229 | 104 ft | 19 kts | 83° |
| 2026-04-26 04:17 | 33.94071 | -118.38115 | 104 ft | 6 kts | 83° |
| 2026-04-26 04:18 | 33.94076 | -118.38067 | 103 ft | 5 kts | 83° |
| 2026-04-26 04:18 | 33.94079 | -118.38028 | 103 ft | 3 kts | 97° |
| 2026-04-26 04:18 | 33.94078 | -118.38026 | 103 ft | 0 kts | 104° |
| 2026-04-26 04:19 | 33.94074 | -118.38016 | 103 ft | 6 kts | 121° |
| 2026-04-26 04:19 | 33.94010 | -118.37998 | 102 ft | 11 kts | 204° |
| 2026-04-26 04:19 | 33.93981 | -118.38054 | 103 ft | 0 kts | 264° |
| 2026-04-26 04:20 | 33.93972 | -118.38148 | 103 ft | 36 kts | 263° |
| 2026-04-26 04:21 | 33.93903 | -118.38818 | 108 ft | 120 kts | 263° |
| 2026-04-26 04:21 | 33.93770 | -118.40094 | 229 ft | 176 kts | 264° |
| 2026-04-26 04:21 | 33.93608 | -118.41615 | 963 ft | 191 kts | 263° |
| 2026-04-26 04:21 | 33.93448 | -118.43160 | 1862 ft | 193 kts | 262° |
| 2026-04-26 04:22 | 33.93070 | -118.44791 | 2352 ft | 214 kts | 242° |
| 2026-04-26 04:22 | 33.92186 | -118.46317 | 2933 ft | 235 kts | 233° |
| 2026-04-26 04:22 | 33.91163 | -118.47951 | 3602 ft | 253 kts | 233° |
| 2026-04-26 04:22 | 33.90090 | -118.49618 | 4559 ft | 259 kts | 233° |
| 2026-04-26 04:23 | 33.88982 | -118.51321 | 5599 ft | 261 kts | 232° |
| 2026-04-26 04:23 | 33.87870 | -118.52992 | 6637 ft | 262 kts | 233° |
| 2026-04-26 04:23 | 33.86713 | -118.54672 | 7618 ft | 265 kts | 224° |
| 2026-04-26 04:23 | 33.85087 | -118.55737 | 8368 ft | 280 kts | 198° |
| 2026-04-26 04:24 | 33.83195 | -118.56171 | 9484 ft | 277 kts | 195° |
| 2026-04-26 04:24 | 33.81340 | -118.56544 | 10477 ft | 277 kts | 193° |
| 2026-04-26 04:24 | 33.79362 | -118.56838 | 10956 ft | 297 kts | 192° |
| 2026-04-26 04:24 | 33.77214 | -118.57024 | 11249 ft | 325 kts | 186° |
| 2026-04-26 04:25 | 33.74896 | -118.57012 | 11861 ft | 339 kts | 185° |
| 2026-04-26 04:25 | 33.72550 | -118.56997 | 12638 ft | 346 kts | 184° |
| 2026-04-26 04:25 | 33.70113 | -118.56593 | 12967 ft | 363 kts | 168° |
| 2026-04-26 04:25 | 33.67892 | -118.55105 | 12925 ft | 373 kts | 143° |
| 2026-04-26 04:26 | 33.66349 | -118.52558 | 12930 ft | 384 kts | 117° |
| 2026-04-26 04:26 | 33.65690 | -118.49457 | 12934 ft | 391 kts | 102° |
| 2026-04-26 04:26 | 33.65078 | -118.46268 | 12920 ft | 387 kts | 114° |
| 2026-04-26 04:26 | 33.63855 | -118.43465 | 12930 ft | 380 kts | 128° |
| 2026-04-26 04:27 | 33.62352 | -118.40839 | 12926 ft | 380 kts | 129° |
| 2026-04-26 04:27 | 33.60899 | -118.38222 | 12926 ft | 381 kts | 128° |
| 2026-04-26 04:27 | 33.59455 | -118.35545 | 12926 ft | 381 kts | 127° |
| 2026-04-26 04:27 | 33.58021 | -118.32884 | 12928 ft | 380 kts | 128° |
| 2026-04-26 04:28 | 33.56578 | -118.30209 | 12930 ft | 380 kts | 127° |
| 2026-04-26 04:28 | 33.55155 | -118.27568 | 12932 ft | 380 kts | 128° |
| 2026-04-26 04:28 | 33.53711 | -118.24891 | 12945 ft | 381 kts | 127° |
| 2026-04-26 04:28 | 33.52297 | -118.22250 | 12944 ft | 380 kts | 127° |
| 2026-04-26 04:29 | 33.50856 | -118.19575 | 12945 ft | 379 kts | 127° |
| 2026-04-26 04:29 | 33.49441 | -118.16949 | 12945 ft | 379 kts | 127° |
| 2026-04-26 04:29 | 33.48008 | -118.14290 | 12945 ft | 379 kts | 127° |
| 2026-04-26 04:29 | 33.46575 | -118.11633 | 12945 ft | 379 kts | 127° |
| 2026-04-26 04:30 | 33.45134 | -118.08962 | 12945 ft | 379 kts | 127° |
| 2026-04-26 04:30 | 33.43692 | -118.06291 | 12945 ft | 379 kts | 127° |
| 2026-04-26 04:30 | 33.42489 | -118.04063 | 12945 ft | 379 kts | 127° |
| 2026-04-26 04:30 | 33.41053 | -118.01408 | 12940 ft | 379 kts | 127° |
| 2026-04-26 04:31 | 33.39616 | -117.98750 | 12938 ft | 379 kts | 128° |
| 2026-04-26 04:31 | 33.38370 | -117.96448 | 12936 ft | 377 kts | 128° |
| 2026-04-26 04:31 | 33.36937 | -117.93803 | 12934 ft | 378 kts | 128° |
| 2026-04-26 04:31 | 33.35645 | -117.91423 | 12933 ft | 378 kts | 128° |
| 2026-04-26 04:32 | 33.34208 | -117.88774 | 12931 ft | 379 kts | 128° |
| 2026-04-26 04:32 | 33.32790 | -117.86161 | 12929 ft | 379 kts | 128° |
| 2026-04-26 04:32 | 33.31348 | -117.83507 | 12926 ft | 379 kts | 128° |
| 2026-04-26 04:32 | 33.29904 | -117.80851 | 12926 ft | 379 kts | 128° |
| 2026-04-26 04:33 | 33.28485 | -117.78240 | 12926 ft | 379 kts | 128° |
| 2026-04-26 04:33 | 33.27051 | -117.75607 | 12926 ft | 379 kts | 128° |
| 2026-04-26 04:33 | 33.25606 | -117.72955 | 12926 ft | 379 kts | 128° |
| 2026-04-26 04:33 | 33.24169 | -117.70321 | 12926 ft | 378 kts | 128° |
| 2026-04-26 04:34 | 33.22745 | -117.67711 | 12926 ft | 378 kts | 128° |
| 2026-04-26 04:34 | 33.21298 | -117.65060 | 12926 ft | 379 kts | 128° |
| 2026-04-26 04:34 | 33.19871 | -117.62448 | 12926 ft | 379 kts | 128° |
| 2026-04-26 04:34 | 33.18415 | -117.59786 | 12926 ft | 379 kts | 128° |
| 2026-04-26 04:35 | 33.16987 | -117.57175 | 12926 ft | 379 kts | 128° |
| 2026-04-26 04:35 | 33.15537 | -117.54527 | 12926 ft | 378 kts | 128° |
| 2026-04-26 04:35 | 33.14113 | -117.51927 | 12926 ft | 378 kts | 128° |
| 2026-04-26 04:35 | 33.12664 | -117.49284 | 12926 ft | 379 kts | 128° |
| 2026-04-26 04:36 | 33.11303 | -117.46629 | 12853 ft | 379 kts | 124° |
| 2026-04-26 04:36 | 33.10033 | -117.43884 | 12355 ft | 377 kts | 123° |
| 2026-04-26 04:36 | 33.08799 | -117.41119 | 11854 ft | 376 kts | 122° |
| 2026-04-26 04:36 | 33.07628 | -117.38412 | 11690 ft | 361 kts | 122° |
| 2026-04-26 04:37 | 33.06492 | -117.35791 | 11409 ft | 346 kts | 122° |
| 2026-04-26 04:37 | 33.05405 | -117.33295 | 11095 ft | 338 kts | 122° |
| 2026-04-26 04:37 | 33.04324 | -117.30814 | 10756 ft | 334 kts | 122° |
| 2026-04-26 04:37 | 33.03263 | -117.28403 | 10370 ft | 331 kts | 122° |
| 2026-04-26 04:38 | 33.02183 | -117.25978 | 9983 ft | 329 kts | 122° |
| 2026-04-26 04:38 | 33.01104 | -117.23573 | 9601 ft | 326 kts | 122° |
| 2026-04-26 04:38 | 33.00042 | -117.21232 | 9200 ft | 324 kts | 122° |
| 2026-04-26 04:38 | 32.98958 | -117.18874 | 8792 ft | 323 kts | 122° |
| 2026-04-26 04:39 | 32.97780 | -117.16628 | 8404 ft | 316 kts | 135° |
| 2026-04-26 04:39 | 32.96045 | -117.15155 | 7987 ft | 303 kts | 162° |
| 2026-04-26 04:39 | 32.94094 | -117.14335 | 7620 ft | 299 kts | 165° |
| 2026-04-26 04:39 | 32.92169 | -117.13451 | 7223 ft | 299 kts | 162° |
| 2026-04-26 04:40 | 32.90241 | -117.12511 | 6821 ft | 298 kts | 162° |
| 2026-04-26 04:40 | 32.88332 | -117.11582 | 6522 ft | 293 kts | 162° |
| 2026-04-26 04:40 | 32.86488 | -117.10679 | 6272 ft | 287 kts | 161° |
| 2026-04-26 04:40 | 32.84656 | -117.09776 | 6021 ft | 281 kts | 161° |
| 2026-04-26 04:41 | 32.82897 | -117.08908 | 5966 ft | 274 kts | 161° |
| 2026-04-26 04:41 | 32.81094 | -117.08022 | 5972 ft | 282 kts | 161° |
| 2026-04-26 04:41 | 32.79304 | -117.07094 | 5969 ft | 285 kts | 155° |
| 2026-04-26 04:41 | 32.77837 | -117.05567 | 5963 ft | 274 kts | 125° |
| 2026-04-26 04:42 | 32.77219 | -117.03521 | 5889 ft | 262 kts | 103° |
| 2026-04-26 04:42 | 32.76792 | -117.01450 | 5630 ft | 256 kts | 110° |
| 2026-04-26 04:42 | 32.76241 | -116.99470 | 5349 ft | 245 kts | 110° |
| 2026-04-26 04:42 | 32.75693 | -116.97627 | 5080 ft | 233 kts | 122° |
| 2026-04-26 04:43 | 32.74618 | -116.96304 | 4833 ft | 219 kts | 152° |
| 2026-04-26 04:43 | 32.73264 | -116.95557 | 4514 ft | 212 kts | 170° |
| 2026-04-26 04:43 | 32.71842 | -116.95503 | 4267 ft | 199 kts | 196° |
| 2026-04-26 04:43 | 32.70576 | -116.96081 | 4035 ft | 192 kts | 214° |
| 2026-04-26 04:44 | 32.69598 | -116.97104 | 3814 ft | 188 kts | 234° |
| 2026-04-26 04:44 | 32.69007 | -116.98453 | 3575 ft | 181 kts | 253° |
| 2026-04-26 04:44 | 32.68832 | -116.99899 | 3341 ft | 177 kts | 271° |
| 2026-04-26 04:44 | 32.69066 | -117.01340 | 3112 ft | 179 kts | 285° |
| 2026-04-26 04:45 | 32.69415 | -117.02746 | 2880 ft | 179 kts | 284° |
| 2026-04-26 04:45 | 32.69755 | -117.04149 | 2648 ft | 172 kts | 284° |
| 2026-04-26 04:45 | 32.70078 | -117.05472 | 2428 ft | 165 kts | 285° |
| 2026-04-26 04:45 | 32.70397 | -117.06784 | 2218 ft | 164 kts | 285° |
| 2026-04-26 04:46 | 32.70713 | -117.08081 | 2025 ft | 165 kts | 285° |
| 2026-04-26 04:46 | 32.71036 | -117.09405 | 1812 ft | 168 kts | 285° |
| 2026-04-26 04:46 | 32.71363 | -117.10719 | 1490 ft | 166 kts | 287° |
| 2026-04-26 04:46 | 32.71674 | -117.11967 | 1353 ft | 150 kts | 287° |
| 2026-04-26 04:47 | 32.71954 | -117.13182 | 1107 ft | 152 kts | 287° |
| 2026-04-26 04:47 | 32.72232 | -117.14372 | 836 ft | 149 kts | 288° |
| 2026-04-26 04:47 | 32.72536 | -117.15562 | 597 ft | 149 kts | 288° |
| 2026-04-26 04:47 | 32.72832 | -117.16730 | 356 ft | 147 kts | 287° |
| 2026-04-26 04:48 | 32.73359 | -117.18955 | 27 ft | 116 kts | 287° |
| 2026-04-26 04:48 | 32.73506 | -117.19580 | 26 ft | 46 kts | 288° |
| 2026-04-26 04:48 | 32.73515 | -117.19817 | 26 ft | 17 kts | 247° |
| 2026-04-26 04:49 | 32.73492 | -117.19894 | 26 ft | 0 kts | 252° |
| 2026-04-26 04:50 | 32.73490 | -117.19904 | 26 ft | 4 kts | 259° |
| 2026-04-26 04:50 | 32.73500 | -117.19987 | 26 ft | 13 kts | 286° |
| 2026-04-26 04:50 | 32.73525 | -117.20089 | 26 ft | 11 kts | 286° |
| 2026-04-26 04:50 | 32.73545 | -117.20176 | 26 ft | 10 kts | 279° |
| 2026-04-26 04:51 | 32.73514 | -117.20234 | 26 ft | 8 kts | 199° |
| 2026-04-26 04:51 | 32.73439 | -117.20261 | 26 ft | 12 kts | 204° |
| 2026-04-26 04:51 | 32.73418 | -117.20330 | 26 ft | 6 kts | 268° |
| 2026-04-26 04:51 | 32.73418 | -117.20336 | 26 ft | 0 kts | 267° |
| 2026-04-26 04:52 | 32.73418 | -117.20337 | 26 ft | 0 kts | 267° |